sensor_id;sensor_type;location;lat;lon;timestamp;P1;durP1;ratioP1;P2;durP2;ratioP2
9900;SDS011;4989;48.772;9.154;2024-01-06T00:00:41;2.67;;;1.03;;
9900;SDS011;4989;48.772;9.154;2024-01-06T00:05:44;1.83;;;1.27;;
9900;SDS011;4989;48.772;9.154;2024-01-06T00:10:47;4.20;;;1.20;;
9900;SDS011;4989;48.772;9.154;2024-01-06T00:15:49;2.73;;;1.60;;
9900;SDS011;4989;48.772;9.154;2024-01-06T00:20:52;2.73;;;1.40;;
9900;SDS011;4989;48.772;9.154;2024-01-06T00:25:55;3.30;;;1.50;;
9900;SDS011;4989;48.772;9.154;2024-01-06T00:30:58;1.70;;;1.03;;
9900;SDS011;4989;48.772;9.154;2024-01-06T00:36:01;2.93;;;1.13;;
9900;SDS011;4989;48.772;9.154;2024-01-06T00:41:04;2.03;;;1.30;;
9900;SDS011;4989;48.772;9.154;2024-01-06T00:46:07;3.07;;;1.30;;
9900;SDS011;4989;48.772;9.154;2024-01-06T00:51:09;1.40;;;0.83;;
9900;SDS011;4989;48.772;9.154;2024-01-06T00:56:12;3.00;;;1.20;;
9900;SDS011;4989;48.772;9.154;2024-01-06T01:01:15;1.97;;;1.00;;
9900;SDS011;4989;48.772;9.154;2024-01-06T01:06:18;0.97;;;0.90;;
9900;SDS011;4989;48.772;9.154;2024-01-06T01:11:20;2.00;;;1.10;;
9900;SDS011;4989;48.772;9.154;2024-01-06T01:16:23;1.00;;;0.97;;
9900;SDS011;4989;48.772;9.154;2024-01-06T01:21:26;2.80;;;0.60;;
9900;SDS011;4989;48.772;9.154;2024-01-06T01:26:29;1.97;;;1.07;;
9900;SDS011;4989;48.772;9.154;2024-01-06T01:31:32;1.50;;;1.00;;
9900;SDS011;4989;48.772;9.154;2024-01-06T01:36:36;1.87;;;0.90;;
9900;SDS011;4989;48.772;9.154;2024-01-06T01:41:39;3.93;;;1.30;;
9900;SDS011;4989;48.772;9.154;2024-01-06T01:46:42;1.07;;;0.90;;
9900;SDS011;4989;48.772;9.154;2024-01-06T01:51:45;1.03;;;0.90;;
9900;SDS011;4989;48.772;9.154;2024-01-06T01:56:48;5.47;;;1.10;;
9900;SDS011;4989;48.772;9.154;2024-01-06T02:01:51;4.33;;;1.20;;
9900;SDS011;4989;48.772;9.154;2024-01-06T02:06:53;1.00;;;0.90;;
9900;SDS011;4989;48.772;9.154;2024-01-06T02:11:56;1.87;;;0.90;;
9900;SDS011;4989;48.772;9.154;2024-01-06T02:17:00;1.37;;;0.90;;
9900;SDS011;4989;48.772;9.154;2024-01-06T02:22:02;0.80;;;0.80;;
9900;SDS011;4989;48.772;9.154;2024-01-06T02:27:05;2.00;;;0.73;;
9900;SDS011;4989;48.772;9.154;2024-01-06T02:32:08;2.63;;;0.70;;
9900;SDS011;4989;48.772;9.154;2024-01-06T02:37:10;2.10;;;1.20;;
9900;SDS011;4989;48.772;9.154;2024-01-06T02:42:13;1.87;;;0.93;;
9900;SDS011;4989;48.772;9.154;2024-01-06T02:47:16;3.03;;;1.10;;
9900;SDS011;4989;48.772;9.154;2024-01-06T02:52:19;1.83;;;1.10;;
9900;SDS011;4989;48.772;9.154;2024-01-06T02:57:21;3.33;;;1.00;;
9900;SDS011;4989;48.772;9.154;2024-01-06T03:02:24;1.60;;;0.90;;
9900;SDS011;4989;48.772;9.154;2024-01-06T03:07:27;1.50;;;1.23;;
9900;SDS011;4989;48.772;9.154;2024-01-06T03:12:29;2.10;;;1.10;;
9900;SDS011;4989;48.772;9.154;2024-01-06T03:17:32;4.40;;;1.33;;
9900;SDS011;4989;48.772;9.154;2024-01-06T03:22:35;1.63;;;1.10;;
9900;SDS011;4989;48.772;9.154;2024-01-06T03:27:39;1.57;;;1.00;;
9900;SDS011;4989;48.772;9.154;2024-01-06T03:32:42;3.43;;;1.23;;
9900;SDS011;4989;48.772;9.154;2024-01-06T03:37:44;2.20;;;1.40;;
9900;SDS011;4989;48.772;9.154;2024-01-06T03:42:47;0.97;;;0.87;;
9900;SDS011;4989;48.772;9.154;2024-01-06T03:47:50;3.90;;;1.00;;
9900;SDS011;4989;48.772;9.154;2024-01-06T03:52:53;1.10;;;1.00;;
9900;SDS011;4989;48.772;9.154;2024-01-06T03:57:55;3.37;;;1.30;;
9900;SDS011;4989;48.772;9.154;2024-01-06T04:02:58;1.30;;;1.10;;
9900;SDS011;4989;48.772;9.154;2024-01-06T04:08:01;2.00;;;1.10;;
9900;SDS011;4989;48.772;9.154;2024-01-06T04:13:03;1.77;;;1.00;;
9900;SDS011;4989;48.772;9.154;2024-01-06T04:18:06;2.70;;;1.20;;
9900;SDS011;4989;48.772;9.154;2024-01-06T04:23:10;1.00;;;1.00;;
9900;SDS011;4989;48.772;9.154;2024-01-06T04:28:13;3.87;;;1.23;;
9900;SDS011;4989;48.772;9.154;2024-01-06T04:33:15;3.07;;;1.40;;
9900;SDS011;4989;48.772;9.154;2024-01-06T04:38:18;2.27;;;1.30;;
9900;SDS011;4989;48.772;9.154;2024-01-06T04:43:21;1.47;;;1.00;;
9900;SDS011;4989;48.772;9.154;2024-01-06T04:48:24;0.93;;;0.87;;
9900;SDS011;4989;48.772;9.154;2024-01-06T04:53:27;1.13;;;0.70;;
9900;SDS011;4989;48.772;9.154;2024-01-06T04:58:29;1.00;;;0.90;;
9900;SDS011;4989;48.772;9.154;2024-01-06T05:03:32;1.57;;;1.00;;
9900;SDS011;4989;48.772;9.154;2024-01-06T05:08:35;1.03;;;0.90;;
9900;SDS011;4989;48.772;9.154;2024-01-06T05:13:43;2.00;;;1.00;;
9900;SDS011;4989;48.772;9.154;2024-01-06T05:18:45;1.00;;;0.87;;
9900;SDS011;4989;48.772;9.154;2024-01-06T05:23:48;1.30;;;0.80;;
9900;SDS011;4989;48.772;9.154;2024-01-06T05:28:51;2.33;;;0.80;;
9900;SDS011;4989;48.772;9.154;2024-01-06T05:33:54;1.63;;;1.00;;
9900;SDS011;4989;48.772;9.154;2024-01-06T05:38:57;1.03;;;0.90;;
9900;SDS011;4989;48.772;9.154;2024-01-06T05:44:01;0.67;;;0.67;;
9900;SDS011;4989;48.772;9.154;2024-01-06T05:49:04;1.53;;;0.77;;
9900;SDS011;4989;48.772;9.154;2024-01-06T05:54:07;5.87;;;2.13;;
9900;SDS011;4989;48.772;9.154;2024-01-06T05:59:10;6.37;;;2.43;;
9900;SDS011;4989;48.772;9.154;2024-01-06T06:04:12;2.87;;;1.23;;
9900;SDS011;4989;48.772;9.154;2024-01-06T06:09:15;3.53;;;1.10;;
9900;SDS011;4989;48.772;9.154;2024-01-06T06:14:18;0.87;;;0.70;;
9900;SDS011;4989;48.772;9.154;2024-01-06T06:19:20;1.60;;;1.07;;
9900;SDS011;4989;48.772;9.154;2024-01-06T06:24:23;0.93;;;0.90;;
9900;SDS011;4989;48.772;9.154;2024-01-06T06:29:26;2.97;;;1.00;;
9900;SDS011;4989;48.772;9.154;2024-01-06T06:34:30;1.10;;;1.07;;
9900;SDS011;4989;48.772;9.154;2024-01-06T06:39:33;1.17;;;1.07;;
9900;SDS011;4989;48.772;9.154;2024-01-06T06:44:36;1.17;;;1.00;;
9900;SDS011;4989;48.772;9.154;2024-01-06T06:49:39;0.93;;;0.90;;
9900;SDS011;4989;48.772;9.154;2024-01-06T06:54:43;0.97;;;0.97;;
9900;SDS011;4989;48.772;9.154;2024-01-06T06:59:45;1.77;;;1.03;;
9900;SDS011;4989;48.772;9.154;2024-01-06T07:04:48;1.60;;;1.00;;
9900;SDS011;4989;48.772;9.154;2024-01-06T07:09:50;2.20;;;1.33;;
9900;SDS011;4989;48.772;9.154;2024-01-06T07:14:53;1.10;;;1.10;;
9900;SDS011;4989;48.772;9.154;2024-01-06T07:19:56;2.60;;;1.63;;
9900;SDS011;4989;48.772;9.154;2024-01-06T07:24:58;3.70;;;2.27;;
9900;SDS011;4989;48.772;9.154;2024-01-06T07:30:01;1.60;;;1.50;;
9900;SDS011;4989;48.772;9.154;2024-01-06T07:35:04;2.17;;;1.80;;
9900;SDS011;4989;48.772;9.154;2024-01-06T07:40:08;1.30;;;1.20;;
9900;SDS011;4989;48.772;9.154;2024-01-06T07:45:12;2.33;;;1.13;;
9900;SDS011;4989;48.772;9.154;2024-01-06T07:50:15;1.00;;;1.00;;
9900;SDS011;4989;48.772;9.154;2024-01-06T07:55:17;2.17;;;1.17;;
9900;SDS011;4989;48.772;9.154;2024-01-06T08:00:20;1.50;;;1.17;;
9900;SDS011;4989;48.772;9.154;2024-01-06T08:05:23;1.30;;;1.00;;
9900;SDS011;4989;48.772;9.154;2024-01-06T08:10:26;1.80;;;1.37;;
9900;SDS011;4989;48.772;9.154;2024-01-06T08:15:28;0.97;;;0.97;;
9900;SDS011;4989;48.772;9.154;2024-01-06T08:20:34;1.23;;;1.00;;
9900;SDS011;4989;48.772;9.154;2024-01-06T08:25:36;2.00;;;1.20;;
9900;SDS011;4989;48.772;9.154;2024-01-06T08:30:39;1.00;;;0.93;;
9900;SDS011;4989;48.772;9.154;2024-01-06T08:35:42;1.23;;;0.83;;
9900;SDS011;4989;48.772;9.154;2024-01-06T08:40:45;2.57;;;1.00;;
9900;SDS011;4989;48.772;9.154;2024-01-06T08:45:49;0.90;;;0.90;;
9900;SDS011;4989;48.772;9.154;2024-01-06T08:50:52;1.10;;;1.00;;
9900;SDS011;4989;48.772;9.154;2024-01-06T08:55:55;1.13;;;1.03;;
9900;SDS011;4989;48.772;9.154;2024-01-06T09:00:58;1.20;;;1.10;;
9900;SDS011;4989;48.772;9.154;2024-01-06T09:06:01;0.80;;;0.80;;
9900;SDS011;4989;48.772;9.154;2024-01-06T09:11:04;1.13;;;0.80;;
9900;SDS011;4989;48.772;9.154;2024-01-06T09:16:07;1.00;;;1.00;;
9900;SDS011;4989;48.772;9.154;2024-01-06T09:21:10;1.30;;;1.00;;
9900;SDS011;4989;48.772;9.154;2024-01-06T09:26:13;0.90;;;0.90;;
9900;SDS011;4989;48.772;9.154;2024-01-06T09:31:17;1.03;;;1.03;;
9900;SDS011;4989;48.772;9.154;2024-01-06T09:36:20;0.80;;;0.80;;
9900;SDS011;4989;48.772;9.154;2024-01-06T09:41:23;1.30;;;1.20;;
9900;SDS011;4989;48.772;9.154;2024-01-06T09:46:27;1.40;;;1.30;;
9900;SDS011;4989;48.772;9.154;2024-01-06T09:51:33;1.03;;;1.03;;
9900;SDS011;4989;48.772;9.154;2024-01-06T09:56:39;1.60;;;1.00;;
9900;SDS011;4989;48.772;9.154;2024-01-06T10:01:42;1.50;;;1.00;;
9900;SDS011;4989;48.772;9.154;2024-01-06T10:06:45;1.03;;;1.00;;
9900;SDS011;4989;48.772;9.154;2024-01-06T10:11:48;1.70;;;1.60;;
9900;SDS011;4989;48.772;9.154;2024-01-06T10:16:51;1.10;;;1.10;;
9900;SDS011;4989;48.772;9.154;2024-01-06T10:21:54;1.30;;;1.20;;
9900;SDS011;4989;48.772;9.154;2024-01-06T10:27:02;1.00;;;1.00;;
9900;SDS011;4989;48.772;9.154;2024-01-06T10:32:05;1.17;;;0.90;;
9900;SDS011;4989;48.772;9.154;2024-01-06T10:37:08;0.97;;;0.97;;
9900;SDS011;4989;48.772;9.154;2024-01-06T10:42:12;1.13;;;1.03;;
9900;SDS011;4989;48.772;9.154;2024-01-06T10:47:16;0.70;;;0.70;;
9900;SDS011;4989;48.772;9.154;2024-01-06T10:52:20;2.27;;;1.20;;
9900;SDS011;4989;48.772;9.154;2024-01-06T10:57:24;1.10;;;1.00;;
9900;SDS011;4989;48.772;9.154;2024-01-06T11:02:27;0.80;;;0.80;;
9900;SDS011;4989;48.772;9.154;2024-01-06T11:07:30;7.93;;;2.53;;
9900;SDS011;4989;48.772;9.154;2024-01-06T11:12:33;2.93;;;2.00;;
9900;SDS011;4989;48.772;9.154;2024-01-06T11:17:55;1.70;;;1.50;;
9900;SDS011;4989;48.772;9.154;2024-01-06T11:23:17;1.20;;;1.10;;
9900;SDS011;4989;48.772;9.154;2024-01-06T11:28:23;1.20;;;1.20;;
9900;SDS011;4989;48.772;9.154;2024-01-06T11:33:27;0.90;;;0.90;;
9900;SDS011;4989;48.772;9.154;2024-01-06T11:38:32;2.63;;;1.90;;
9900;SDS011;4989;48.772;9.154;2024-01-06T11:43:38;2.90;;;2.13;;
9900;SDS011;4989;48.772;9.154;2024-01-06T11:48:42;3.67;;;2.50;;
9900;SDS011;4989;48.772;9.154;2024-01-06T11:53:52;2.87;;;2.30;;
9900;SDS011;4989;48.772;9.154;2024-01-06T11:58:55;3.37;;;2.60;;
9900;SDS011;4989;48.772;9.154;2024-01-06T12:03:58;1.07;;;1.07;;
9900;SDS011;4989;48.772;9.154;2024-01-06T12:09:19;2.20;;;2.00;;
9900;SDS011;4989;48.772;9.154;2024-01-06T12:14:22;1.53;;;1.10;;
9900;SDS011;4989;48.772;9.154;2024-01-06T12:19:25;4.37;;;3.37;;
9900;SDS011;4989;48.772;9.154;2024-01-06T12:24:29;1.20;;;1.20;;
9900;SDS011;4989;48.772;9.154;2024-01-06T12:29:32;2.53;;;2.00;;
9900;SDS011;4989;48.772;9.154;2024-01-06T12:34:35;1.43;;;1.33;;
9900;SDS011;4989;48.772;9.154;2024-01-06T12:39:37;1.73;;;1.60;;
9900;SDS011;4989;48.772;9.154;2024-01-06T12:44:43;2.00;;;1.90;;
9900;SDS011;4989;48.772;9.154;2024-01-06T12:49:45;1.93;;;1.80;;
9900;SDS011;4989;48.772;9.154;2024-01-06T12:55:01;2.30;;;1.63;;
9900;SDS011;4989;48.772;9.154;2024-01-06T13:00:05;1.80;;;1.70;;
9900;SDS011;4989;48.772;9.154;2024-01-06T13:05:10;2.70;;;2.50;;
9900;SDS011;4989;48.772;9.154;2024-01-06T13:10:14;1.63;;;1.53;;
9900;SDS011;4989;48.772;9.154;2024-01-06T13:15:17;2.70;;;2.50;;
9900;SDS011;4989;48.772;9.154;2024-01-06T13:20:19;2.43;;;2.03;;
9900;SDS011;4989;48.772;9.154;2024-01-06T13:25:22;2.00;;;1.63;;
9900;SDS011;4989;48.772;9.154;2024-01-06T13:30:26;2.30;;;2.10;;
9900;SDS011;4989;48.772;9.154;2024-01-06T13:35:52;1.90;;;1.80;;
9900;SDS011;4989;48.772;9.154;2024-01-06T13:40:56;1.80;;;1.70;;
9900;SDS011;4989;48.772;9.154;2024-01-06T13:45:59;2.30;;;2.10;;
9900;SDS011;4989;48.772;9.154;2024-01-06T13:51:03;2.40;;;2.20;;
9900;SDS011;4989;48.772;9.154;2024-01-06T13:56:06;1.70;;;1.57;;
9900;SDS011;4989;48.772;9.154;2024-01-06T14:01:08;2.60;;;2.40;;
9900;SDS011;4989;48.772;9.154;2024-01-06T14:06:13;4.47;;;2.23;;
9900;SDS011;4989;48.772;9.154;2024-01-06T14:11:19;2.10;;;1.90;;
9900;SDS011;4989;48.772;9.154;2024-01-06T14:16:49;2.00;;;1.80;;
9900;SDS011;4989;48.772;9.154;2024-01-06T14:22:14;1.80;;;1.70;;
9900;SDS011;4989;48.772;9.154;2024-01-06T14:27:38;2.77;;;2.00;;
9900;SDS011;4989;48.772;9.154;2024-01-06T14:32:47;2.43;;;1.90;;
9900;SDS011;4989;48.772;9.154;2024-01-06T14:38:01;2.40;;;2.20;;
9900;SDS011;4989;48.772;9.154;2024-01-06T14:43:12;2.47;;;2.27;;
9900;SDS011;4989;48.772;9.154;2024-01-06T14:48:42;2.33;;;2.13;;
9900;SDS011;4989;48.772;9.154;2024-01-06T14:53:45;2.63;;;2.30;;
9900;SDS011;4989;48.772;9.154;2024-01-06T14:59:34;3.13;;;2.40;;
9900;SDS011;4989;48.772;9.154;2024-01-06T15:05:23;3.53;;;2.60;;
9900;SDS011;4989;48.772;9.154;2024-01-06T15:10:32;2.73;;;2.50;;
9900;SDS011;4989;48.772;9.154;2024-01-06T15:22:07;3.60;;;2.80;;
9900;SDS011;4989;48.772;9.154;2024-01-06T15:28:19;3.20;;;2.60;;
9900;SDS011;4989;48.772;9.154;2024-01-06T15:34:15;2.90;;;2.70;;
9900;SDS011;4989;48.772;9.154;2024-01-06T15:39:35;3.50;;;3.20;;
9900;SDS011;4989;48.772;9.154;2024-01-06T15:44:50;2.43;;;2.23;;
9900;SDS011;4989;48.772;9.154;2024-01-06T15:50:28;2.67;;;2.47;;
9900;SDS011;4989;48.772;9.154;2024-01-06T15:55:31;2.93;;;2.63;;
9900;SDS011;4989;48.772;9.154;2024-01-06T16:00:33;4.60;;;3.93;;
9900;SDS011;4989;48.772;9.154;2024-01-06T16:05:38;5.43;;;3.60;;
9900;SDS011;4989;48.772;9.154;2024-01-06T16:10:52;3.20;;;2.90;;
9900;SDS011;4989;48.772;9.154;2024-01-06T16:15:56;6.43;;;4.10;;
9900;SDS011;4989;48.772;9.154;2024-01-06T16:20:59;4.90;;;3.77;;
9900;SDS011;4989;48.772;9.154;2024-01-06T16:26:05;4.10;;;3.10;;
9900;SDS011;4989;48.772;9.154;2024-01-06T16:31:13;5.10;;;4.50;;
9900;SDS011;4989;48.772;9.154;2024-01-06T16:36:28;5.17;;;4.23;;
9900;SDS011;4989;48.772;9.154;2024-01-06T16:41:58;6.47;;;4.73;;
9900;SDS011;4989;48.772;9.154;2024-01-06T16:47:15;6.10;;;4.40;;
9900;SDS011;4989;48.772;9.154;2024-01-06T16:52:33;5.93;;;4.50;;
9900;SDS011;4989;48.772;9.154;2024-01-06T16:57:37;6.63;;;5.00;;
9900;SDS011;4989;48.772;9.154;2024-01-06T17:02:40;5.97;;;4.27;;
9900;SDS011;4989;48.772;9.154;2024-01-06T17:07:43;5.70;;;4.33;;
9900;SDS011;4989;48.772;9.154;2024-01-06T17:12:53;5.33;;;3.93;;
9900;SDS011;4989;48.772;9.154;2024-01-06T17:18:17;4.57;;;4.07;;
9900;SDS011;4989;48.772;9.154;2024-01-06T17:23:46;6.67;;;4.67;;
9900;SDS011;4989;48.772;9.154;2024-01-06T17:29:08;6.40;;;4.53;;
9900;SDS011;4989;48.772;9.154;2024-01-06T17:34:13;9.07;;;6.40;;
9900;SDS011;4989;48.772;9.154;2024-01-06T17:39:22;6.87;;;4.67;;
9900;SDS011;4989;48.772;9.154;2024-01-06T17:44:32;5.70;;;4.47;;
9900;SDS011;4989;48.772;9.154;2024-01-06T17:50:01;4.03;;;3.63;;
9900;SDS011;4989;48.772;9.154;2024-01-06T17:55:31;3.37;;;3.07;;
9900;SDS011;4989;48.772;9.154;2024-01-06T18:00:59;5.07;;;4.23;;
9900;SDS011;4989;48.772;9.154;2024-01-06T18:06:33;5.27;;;4.30;;
9900;SDS011;4989;48.772;9.154;2024-01-06T18:12:02;6.20;;;4.33;;
9900;SDS011;4989;48.772;9.154;2024-01-06T18:17:11;5.17;;;4.67;;
9900;SDS011;4989;48.772;9.154;2024-01-06T18:22:14;6.10;;;4.27;;
9900;SDS011;4989;48.772;9.154;2024-01-06T18:27:17;5.03;;;4.30;;
9900;SDS011;4989;48.772;9.154;2024-01-06T18:32:20;6.60;;;5.10;;
9900;SDS011;4989;48.772;9.154;2024-01-06T18:37:23;7.47;;;5.57;;
9900;SDS011;4989;48.772;9.154;2024-01-06T18:42:26;6.73;;;5.00;;
9900;SDS011;4989;48.772;9.154;2024-01-06T18:47:36;8.10;;;6.00;;
9900;SDS011;4989;48.772;9.154;2024-01-06T18:52:50;7.50;;;5.27;;
9900;SDS011;4989;48.772;9.154;2024-01-06T19:03:49;8.77;;;5.67;;
9900;SDS011;4989;48.772;9.154;2024-01-06T19:08:58;7.33;;;5.53;;
9900;SDS011;4989;48.772;9.154;2024-01-06T19:14:12;7.87;;;5.83;;
9900;SDS011;4989;48.772;9.154;2024-01-06T19:19:26;7.23;;;5.97;;
9900;SDS011;4989;48.772;9.154;2024-01-06T19:24:49;6.77;;;5.37;;
9900;SDS011;4989;48.772;9.154;2024-01-06T19:30:02;6.10;;;4.67;;
9900;SDS011;4989;48.772;9.154;2024-01-06T19:35:05;19.10;;;10.00;;
9900;SDS011;4989;48.772;9.154;2024-01-06T19:40:09;7.67;;;5.10;;
9900;SDS011;4989;48.772;9.154;2024-01-06T19:45:14;7.10;;;5.73;;
9900;SDS011;4989;48.772;9.154;2024-01-06T19:50:35;7.43;;;5.73;;
9900;SDS011;4989;48.772;9.154;2024-01-06T19:55:52;8.33;;;6.40;;
9900;SDS011;4989;48.772;9.154;2024-01-06T20:00:57;9.77;;;6.73;;
9900;SDS011;4989;48.772;9.154;2024-01-06T20:06:09;8.80;;;6.80;;
9900;SDS011;4989;48.772;9.154;2024-01-06T20:11:20;8.80;;;5.77;;
9900;SDS011;4989;48.772;9.154;2024-01-06T20:16:31;7.47;;;6.10;;
9900;SDS011;4989;48.772;9.154;2024-01-06T20:21:54;10.23;;;7.03;;
9900;SDS011;4989;48.772;9.154;2024-01-06T20:27:24;10.30;;;7.37;;
9900;SDS011;4989;48.772;9.154;2024-01-06T20:32:35;8.83;;;6.73;;
9900;SDS011;4989;48.772;9.154;2024-01-06T20:37:42;9.53;;;6.70;;
9900;SDS011;4989;48.772;9.154;2024-01-06T20:42:56;8.40;;;6.67;;
9900;SDS011;4989;48.772;9.154;2024-01-06T20:48:29;8.87;;;7.30;;
9900;SDS011;4989;48.772;9.154;2024-01-06T20:53:32;10.33;;;6.93;;
9900;SDS011;4989;48.772;9.154;2024-01-06T20:58:37;83.13;;;36.17;;
9900;SDS011;4989;48.772;9.154;2024-01-06T21:04:01;15.87;;;9.93;;
9900;SDS011;4989;48.772;9.154;2024-01-06T21:09:06;12.40;;;8.00;;
9900;SDS011;4989;48.772;9.154;2024-01-06T21:14:19;11.23;;;7.70;;
9900;SDS011;4989;48.772;9.154;2024-01-06T21:19:27;10.50;;;7.57;;
9900;SDS011;4989;48.772;9.154;2024-01-06T21:24:52;7.70;;;5.53;;
9900;SDS011;4989;48.772;9.154;2024-01-06T21:30:09;12.17;;;8.33;;
9900;SDS011;4989;48.772;9.154;2024-01-06T21:35:20;9.90;;;6.37;;
9900;SDS011;4989;48.772;9.154;2024-01-06T21:40:31;9.83;;;7.17;;
9900;SDS011;4989;48.772;9.154;2024-01-06T21:45:38;11.23;;;7.77;;
9900;SDS011;4989;48.772;9.154;2024-01-06T21:50:41;10.03;;;7.33;;
9900;SDS011;4989;48.772;9.154;2024-01-06T21:55:59;9.40;;;7.03;;
9900;SDS011;4989;48.772;9.154;2024-01-06T22:01:06;8.67;;;6.57;;
9900;SDS011;4989;48.772;9.154;2024-01-06T22:06:21;13.87;;;7.50;;
9900;SDS011;4989;48.772;9.154;2024-01-06T22:11:25;11.33;;;7.07;;
9900;SDS011;4989;48.772;9.154;2024-01-06T22:16:58;8.70;;;6.30;;
9900;SDS011;4989;48.772;9.154;2024-01-06T22:22:37;9.67;;;6.93;;
9900;SDS011;4989;48.772;9.154;2024-01-06T22:28:16;11.67;;;7.47;;
9900;SDS011;4989;48.772;9.154;2024-01-06T22:33:54;13.00;;;7.50;;
9900;SDS011;4989;48.772;9.154;2024-01-06T22:39:04;9.80;;;7.03;;
9900;SDS011;4989;48.772;9.154;2024-01-06T22:44:24;10.03;;;6.73;;
9900;SDS011;4989;48.772;9.154;2024-01-06T22:49:28;12.47;;;7.90;;
9900;SDS011;4989;48.772;9.154;2024-01-06T22:54:53;10.63;;;7.47;;
9900;SDS011;4989;48.772;9.154;2024-01-06T23:00:09;12.73;;;7.83;;
9900;SDS011;4989;48.772;9.154;2024-01-06T23:05:46;13.80;;;7.40;;
9900;SDS011;4989;48.772;9.154;2024-01-06T23:10:54;8.47;;;6.73;;
9900;SDS011;4989;48.772;9.154;2024-01-06T23:16:12;8.87;;;6.90;;
9900;SDS011;4989;48.772;9.154;2024-01-06T23:21:16;18.00;;;9.57;;
9900;SDS011;4989;48.772;9.154;2024-01-06T23:26:18;27.30;;;14.20;;
9900;SDS011;4989;48.772;9.154;2024-01-06T23:31:21;7.90;;;6.57;;
9900;SDS011;4989;48.772;9.154;2024-01-06T23:36:40;9.47;;;7.30;;
9900;SDS011;4989;48.772;9.154;2024-01-06T23:42:23;10.10;;;7.00;;
9900;SDS011;4989;48.772;9.154;2024-01-06T23:47:36;82.60;;;33.77;;
9900;SDS011;4989;48.772;9.154;2024-01-06T23:52:52;20.70;;;11.73;;
9900;SDS011;4989;48.772;9.154;2024-01-06T23:58:04;8.60;;;6.63;;
